createdAt,value
2023-02-08T00:01:19.252Z,103991.44
2023-02-08T00:03:47.432Z,104000.25
2023-02-08T00:06:17.144Z,103990.25
2023-02-08T00:08:45.423Z,103990.97
2023-02-08T00:11:14.000Z,103989.28
2023-02-08T00:13:42.952Z,103987.59
2023-02-08T00:16:12.427Z,103984.16
2023-02-08T00:18:40.712Z,103980.59
2023-02-08T00:21:10.420Z,103977.88
2023-02-08T00:23:39.933Z,103982.28
2023-02-08T00:26:08.261Z,103981.06
2023-02-08T00:28:36.368Z,103979.25
2023-02-08T00:31:04.453Z,103970.41
2023-02-08T00:33:32.438Z,103961.63
2023-02-08T00:36:00.913Z,103968.88
2023-02-08T00:38:29.145Z,103960.97
2023-02-08T00:40:58.464Z,103963.75
2023-02-08T00:43:26.408Z,103971.66
2023-02-08T00:45:55.820Z,103962.41
2023-02-08T00:48:23.763Z,103961.59
2023-02-08T00:51:01.908Z,103961.38
2023-02-08T00:53:29.807Z,103967.63
2023-02-08T00:55:59.110Z,103974.66
2023-02-08T00:58:27.056Z,103960.28
2023-02-08T01:00:55.092Z,103964.94
2023-02-08T01:03:23.356Z,103958.16
2023-02-08T01:05:51.258Z,103957.22
2023-02-08T01:08:20.559Z,103958.09
2023-02-08T01:10:49.122Z,103961.59
2023-02-08T01:13:18.562Z,103965.09
2023-02-08T01:15:46.503Z,103965.97
2023-02-08T01:18:14.384Z,103963.22
2023-02-08T01:20:42.475Z,103965.06
2023-02-08T01:23:10.402Z,103971.34
2023-02-08T01:25:38.304Z,103959.75
2023-02-08T01:28:06.271Z,103961.44
2023-02-08T01:30:35.621Z,103945.47
2023-02-08T01:33:03.620Z,103950.66
2023-02-08T01:35:31.546Z,103948.91
2023-02-08T01:37:59.497Z,103947.22
2023-02-08T01:40:27.372Z,103942.88
2023-02-08T01:42:55.299Z,103952.53
2023-02-08T01:45:27.726Z,103942.75
2023-02-08T01:48:04.664Z,103939.13
2023-02-08T01:50:38.016Z,103943.41
2023-02-08T01:53:06.172Z,103943.13
2023-02-08T01:55:37.127Z,103940.50
2023-02-08T01:58:07.614Z,103942.34
2023-02-08T02:00:35.532Z,103947.72
2023-02-08T02:03:06.053Z,103951.34
2023-02-08T02:05:37.099Z,103959.19
2023-02-08T02:08:05.275Z,103967.19
2023-02-08T02:10:35.394Z,103958.34
2023-02-08T02:13:06.386Z,103961.91
2023-02-08T02:15:34.517Z,103960.22
2023-02-08T02:18:03.977Z,103956.47
2023-02-08T02:20:41.654Z,103952.78
2023-02-08T02:23:30.070Z,103941.44
2023-02-08T02:26:21.564Z,103944.38
2023-02-08T02:29:12.508Z,103934.47
2023-02-08T02:32:02.129Z,103936.44
2023-02-08T02:34:35.909Z,103941.13
2023-02-08T02:37:12.868Z,103927.84
2023-02-08T02:39:44.507Z,103935.63
2023-02-08T02:42:32.740Z,103939.84
2023-02-08T02:45:07.711Z,103939.78
2023-02-08T02:47:41.195Z,103953.13
2023-02-08T02:50:14.928Z,103960.16
2023-02-08T02:52:46.551Z,103958.19
2023-02-08T02:55:16.792Z,103956.44
2023-02-08T02:57:46.300Z,103960.16
2023-02-08T03:00:22.215Z,103969.22
2023-02-08T03:02:51.598Z,103956.81
2023-02-08T03:05:19.654Z,103965.69
2023-02-08T03:08:17.166Z,103959.25
2023-02-08T03:11:20.682Z,103964.69
2023-02-08T03:14:05.372Z,103955.84
2023-02-08T03:16:40.491Z,103956.78
2023-02-08T03:19:15.819Z,103954.84
2023-02-08T03:21:48.188Z,103974.06
2023-02-08T03:24:26.347Z,103981.88
2023-02-08T03:26:58.463Z,103986.28
2023-02-08T03:29:34.720Z,103982.97
2023-02-08T03:32:05.816Z,103980.44
2023-02-08T03:34:38.883Z,103986.72
2023-02-08T03:37:09.785Z,103986.59
2023-02-08T03:39:38.912Z,103986.34
2023-02-08T03:42:10.434Z,103984.31
2023-02-08T03:44:39.953Z,103982.47
2023-02-08T03:47:10.657Z,103988.03
2023-02-08T03:49:40.576Z,103985.28
2023-02-08T03:52:11.134Z,103982.47
2023-02-08T03:54:44.080Z,103976.97
2023-02-08T03:57:14.956Z,103983.97
2023-02-08T03:59:45.028Z,103975.38
2023-02-08T04:02:17.022Z,103984.22
2023-02-08T04:04:48.870Z,103988.00
2023-02-08T04:07:18.401Z,103989.00
2023-02-08T04:09:46.396Z,103994.31
2023-02-08T04:12:14.516Z,103987.16
2023-02-08T04:14:42.614Z,103989.97
2023-02-08T04:17:10.535Z,103992.63
2023-02-08T04:19:38.466Z,103987.13
2023-02-08T04:22:07.821Z,103982.22
2023-02-08T04:24:35.691Z,103979.06
2023-02-08T04:27:05.829Z,103966.66
2023-02-08T04:29:33.957Z,103971.56
2023-02-08T04:32:02.332Z,103972.09
2023-02-08T04:34:30.260Z,103963.72
2023-02-08T04:36:58.132Z,103961.06
2023-02-08T04:39:27.678Z,103966.16
2023-02-08T04:41:55.579Z,103972.31
2023-02-08T04:44:23.502Z,103965.09
2023-02-08T04:46:51.923Z,103951.53
2023-02-08T04:49:19.890Z,103966.63
2023-02-08T04:51:47.803Z,103959.72
2023-02-08T04:54:15.728Z,103968.56
2023-02-08T04:56:44.992Z,103958.84
2023-02-08T04:59:12.877Z,103960.00
2023-02-08T05:01:40.871Z,103963.72
2023-02-08T05:04:08.805Z,103961.06
2023-02-08T05:06:36.722Z,103964.47
2023-02-08T05:09:05.128Z,103965.34
2023-02-08T05:11:33.052Z,103952.97
2023-02-08T05:14:02.373Z,103962.47
2023-02-08T05:16:30.238Z,103958.81
2023-02-08T05:18:58.313Z,103964.78
2023-02-08T05:21:26.280Z,103969.16
2023-02-08T05:23:54.230Z,103960.50
2023-02-08T05:26:22.167Z,103953.53
2023-02-08T05:28:50.094Z,103946.56
2023-02-08T05:31:21.822Z,103952.72
2023-02-08T05:33:50.427Z,103953.78
2023-02-08T05:36:18.537Z,103952.25
2023-02-08T05:38:46.830Z,103951.34
2023-02-08T05:41:14.760Z,103945.44
2023-02-08T05:43:42.812Z,103948.00
2023-02-08T05:46:10.725Z,103942.34
2023-02-08T05:48:40.056Z,103944.53
2023-02-08T05:51:07.936Z,103941.47
2023-02-08T05:53:36.854Z,103939.00
2023-02-08T05:56:04.902Z,103935.25
2023-02-08T05:58:32.836Z,103924.75
2023-02-08T06:01:00.712Z,103922.31
2023-02-08T06:03:28.674Z,103920.66
2023-02-08T06:06:01.862Z,103927.78
2023-02-08T06:08:29.786Z,103936.66
2023-02-08T06:10:57.667Z,103941.03
2023-02-08T06:13:25.644Z,103941.53
2023-02-08T06:15:53.537Z,103942.28
2023-02-08T06:18:21.440Z,103943.50
2023-02-08T06:20:53.752Z,103956.03
2023-02-08T06:23:23.496Z,103962.25
2023-02-08T06:25:52.017Z,103972.06
2023-02-08T06:28:19.932Z,103963.28
2023-02-08T06:30:50.167Z,103972.38
2023-02-08T06:33:18.474Z,103967.19
2023-02-08T06:35:47.079Z,103956.59
2023-02-08T06:38:14.995Z,103963.53
2023-02-08T06:40:45.212Z,103955.44
2023-02-08T06:43:13.132Z,103957.94
2023-02-08T06:45:42.810Z,103957.97
2023-02-08T06:48:10.814Z,103961.56
2023-02-08T06:50:39.019Z,103971.06
2023-02-08T06:53:07.124Z,103971.72
2023-02-08T06:55:35.148Z,103974.94
2023-02-08T06:58:04.419Z,103970.66
2023-02-08T07:00:32.864Z,103974.78
2023-02-08T07:03:01.636Z,103970.22
2023-02-08T07:05:29.557Z,103966.84
2023-02-08T07:07:57.553Z,103965.25
2023-02-08T07:10:25.455Z,103961.88
2023-02-08T07:12:53.336Z,103956.34
2023-02-08T07:15:22.647Z,103957.34
2023-02-08T07:17:50.540Z,103954.78
2023-02-08T07:20:18.526Z,103949.06
2023-02-08T07:22:46.458Z,103952.72
2023-02-08T07:25:14.380Z,103951.94
2023-02-08T07:27:42.324Z,103948.53
2023-02-08T07:30:11.409Z,103952.66
2023-02-08T07:32:40.737Z,103956.47
2023-02-08T07:35:09.347Z,103959.25
2023-02-08T07:37:37.241Z,103954.72
2023-02-08T07:40:05.376Z,103947.03
2023-02-08T07:42:34.368Z,103954.78
2023-02-08T07:45:02.244Z,103951.53
2023-02-08T07:47:30.172Z,103947.81
2023-02-08T07:49:59.476Z,103954.75
2023-02-08T07:52:27.369Z,103945.63
2023-02-08T07:54:55.314Z,103942.91
2023-02-08T07:57:23.573Z,103951.00
2023-02-08T07:59:53.858Z,103948.50
2023-02-08T08:02:22.152Z,103940.63
2023-02-08T08:04:50.067Z,103939.78
2023-02-08T08:07:19.580Z,103932.88
2023-02-08T08:09:47.488Z,103938.97
2023-02-08T08:12:15.375Z,103935.41
2023-02-08T08:14:43.264Z,103936.38
2023-02-08T08:17:11.196Z,103932.94
2023-02-08T08:19:39.469Z,103935.63
2023-02-08T08:22:07.357Z,103927.72
2023-02-08T08:24:36.690Z,103929.66
2023-02-08T08:27:04.892Z,103931.63
2023-02-08T08:29:33.294Z,103933.31
2023-02-08T08:32:01.384Z,103937.81
2023-02-08T08:34:30.735Z,103934.34
2023-02-08T08:36:59.010Z,103927.28
2023-02-08T08:39:27.386Z,103929.22
2023-02-08T08:41:58.727Z,103933.41
2023-02-08T08:44:26.931Z,103931.38
2023-02-08T08:46:56.779Z,103933.00
2023-02-08T08:49:24.780Z,103931.44
2023-02-08T08:51:52.790Z,103927.94
2023-02-08T08:54:22.538Z,103922.63
2023-02-08T08:56:50.689Z,103921.13
2023-02-08T08:59:22.075Z,103924.78
2023-02-08T09:01:50.042Z,103930.16
2023-02-08T09:04:18.009Z,103921.28
2023-02-08T09:06:46.029Z,103906.78
2023-02-08T09:09:14.190Z,103912.28
2023-02-08T09:11:42.151Z,103902.84
2023-02-08T09:14:10.092Z,103909.09
2023-02-08T09:16:41.195Z,103905.59
2023-02-08T09:19:10.709Z,103909.38
2023-02-08T09:21:38.695Z,103914.44
2023-02-08T09:24:07.115Z,103922.38
2023-02-08T09:26:35.205Z,103908.63
2023-02-08T09:29:03.173Z,103902.72
2023-02-08T09:31:33.355Z,103902.28
2023-02-08T09:34:02.842Z,103907.44
2023-02-08T09:36:33.932Z,103894.50
2023-02-08T09:39:03.672Z,103897.31
2023-02-08T09:41:42.698Z,103887.59
2023-02-08T09:44:18.644Z,103882.34
2023-02-08T09:46:53.343Z,103874.97
2023-02-08T09:49:26.208Z,103875.28
2023-02-08T09:51:58.028Z,103869.91
2023-02-08T09:54:29.902Z,103865.34
2023-02-08T09:57:00.027Z,103862.59
2023-02-08T09:59:30.419Z,103865.94
2023-02-08T10:02:02.022Z,103855.72
2023-02-08T10:04:38.547Z,103858.44
2023-02-08T10:07:06.613Z,103852.22
2023-02-08T10:09:34.516Z,103842.38
2023-02-08T10:12:11.668Z,103832.63
2023-02-08T10:14:55.250Z,103829.94
2023-02-08T10:17:33.669Z,103833.47
2023-02-08T10:20:14.207Z,103823.59
2023-02-08T10:22:50.353Z,103816.50
2023-02-08T10:25:28.272Z,103812.94
2023-02-08T10:28:06.917Z,103821.75
2023-02-08T10:30:40.539Z,103817.25
2023-02-08T10:33:13.660Z,103815.50
2023-02-08T10:35:46.338Z,103821.66
2023-02-08T10:38:44.095Z,103811.69
2023-02-08T10:41:16.967Z,103817.91
2023-02-08T10:43:47.360Z,103809.78
2023-02-08T10:46:20.274Z,103814.09
2023-02-08T10:48:58.674Z,103823.03
2023-02-08T10:51:28.311Z,103820.25
2023-02-08T10:53:56.283Z,103815.75
2023-02-08T10:56:36.814Z,103815.78
2023-02-08T10:59:08.909Z,103802.16
2023-02-08T11:01:36.796Z,103799.44
2023-02-08T11:04:06.870Z,103803.84
2023-02-08T11:06:36.255Z,103803.72
2023-02-08T11:09:04.998Z,103804.28
2023-02-08T11:11:36.326Z,103818.63
2023-02-08T11:14:10.094Z,103809.16
2023-02-08T11:16:38.416Z,103810.06
2023-02-08T11:19:08.001Z,103800.22
2023-02-08T11:21:38.720Z,103795.44
2023-02-08T11:24:22.794Z,103793.47
2023-02-08T11:26:50.756Z,103797.53
2023-02-08T11:29:20.707Z,103799.50
2023-02-08T11:32:00.162Z,103794.38
2023-02-08T11:34:29.156Z,103782.63
2023-02-08T11:36:59.741Z,103758.31
2023-02-08T11:39:29.629Z,103771.81
2023-02-08T11:42:00.286Z,103765.16
2023-02-08T11:44:31.568Z,103766.34
2023-02-08T11:47:02.069Z,103757.47
2023-02-08T11:49:33.638Z,103755.63
2023-02-08T11:52:03.016Z,103753.44
2023-02-08T11:54:36.698Z,103752.25
2023-02-08T11:57:10.701Z,103750.88
2023-02-08T11:59:38.595Z,103756.13
2023-02-08T12:02:27.440Z,103753.19
2023-02-08T12:04:55.416Z,103743.19
2023-02-08T12:07:31.698Z,103743.72
2023-02-08T12:10:10.372Z,103726.81
2023-02-08T12:12:48.751Z,103729.13
2023-02-08T12:15:22.799Z,103723.34
2023-02-08T12:18:16.816Z,103723.50
2023-02-08T12:20:47.057Z,103718.13
2023-02-08T12:23:43.158Z,103714.88
2023-02-08T12:26:18.147Z,103715.78
2023-02-08T12:28:59.184Z,103700.97
2023-02-08T12:31:38.288Z,103701.91
2023-02-08T12:34:12.012Z,103695.25
2023-02-08T12:37:24.730Z,103697.13
2023-02-08T12:40:18.022Z,103689.84
2023-02-08T12:42:56.201Z,103687.41
2023-02-08T12:45:59.124Z,103686.78
2023-02-08T12:48:38.825Z,103678.59
2023-02-08T12:51:13.592Z,103671.34
2023-02-08T12:53:45.032Z,103669.53
2023-02-08T12:56:17.256Z,103663.81
2023-02-08T12:58:47.123Z,103662.34
2023-02-08T13:01:18.035Z,103657.41
2023-02-08T13:03:49.874Z,103651.25
2023-02-08T13:06:21.197Z,103651.84
2023-02-08T13:08:52.089Z,103652.75
2023-02-08T13:11:26.692Z,103639.06
2023-02-08T13:13:58.967Z,103639.78
2023-02-08T13:16:30.570Z,103636.97
2023-02-08T13:19:14.192Z,103628.59
2023-02-08T13:21:44.066Z,103614.50
2023-02-08T13:24:26.798Z,103616.03
2023-02-08T13:26:56.108Z,103615.78
2023-02-08T13:29:26.580Z,103609.44
2023-02-08T13:31:59.692Z,103598.06
2023-02-08T13:34:32.339Z,103609.09
2023-02-08T13:37:02.459Z,103603.97
2023-02-08T13:39:35.833Z,103600.41
2023-02-08T13:42:07.065Z,103600.13
2023-02-08T13:44:37.306Z,103597.75
2023-02-08T13:47:06.841Z,103583.91
2023-02-08T13:50:00.106Z,103588.59
2023-02-08T13:52:55.186Z,103585.84
2023-02-08T13:55:55.653Z,103585.91
2023-02-08T13:58:39.463Z,103584.44
2023-02-08T14:01:22.141Z,103586.69
2023-02-08T14:04:18.749Z,103579.31
2023-02-08T14:06:49.381Z,103574.91
2023-02-08T14:09:23.207Z,103575.66
2023-02-08T14:11:52.968Z,103578.22
2023-02-08T14:14:24.740Z,103577.75
2023-02-08T14:17:11.356Z,103567.16
2023-02-08T14:19:41.138Z,103562.59
2023-02-08T14:22:17.819Z,103564.13
2023-02-08T14:24:49.608Z,103559.19
2023-02-08T14:27:21.225Z,103551.09
2023-02-08T14:29:59.260Z,103550.75
2023-02-08T14:32:28.928Z,103549.00
2023-02-08T14:35:05.872Z,103548.19
2023-02-08T14:37:34.874Z,103543.88
2023-02-08T14:40:36.172Z,103541.13
2023-02-08T14:43:06.061Z,103545.13
2023-02-08T14:45:36.728Z,103548.59
2023-02-08T14:48:18.579Z,103541.72
2023-02-08T14:51:02.952Z,103546.13
2023-02-08T14:53:35.812Z,103537.34
2023-02-08T14:56:07.934Z,103531.25
2023-02-08T14:58:38.115Z,103523.38
2023-02-08T15:01:14.245Z,103517.16
2023-02-08T15:03:43.296Z,103526.34
2023-02-08T15:06:49.914Z,103522.00
2023-02-08T15:09:20.515Z,103517.28
2023-02-08T15:11:58.545Z,103520.41
2023-02-08T15:14:26.708Z,103513.25
2023-02-08T15:16:57.294Z,103513.44
2023-02-08T15:19:27.626Z,103515.16
2023-02-08T15:21:55.893Z,103510.69
2023-02-08T15:24:29.085Z,103513.53
2023-02-08T15:26:58.162Z,103508.53
2023-02-08T15:29:39.123Z,103503.00
2023-02-08T15:32:17.607Z,103506.88
2023-02-08T15:34:46.722Z,103495.84
2023-02-08T15:37:17.423Z,103498.13
2023-02-08T15:39:45.687Z,103506.53
2023-02-08T15:42:17.857Z,103504.75
2023-02-08T15:44:46.276Z,103495.94
2023-02-08T15:47:18.848Z,103489.53
2023-02-08T15:49:50.737Z,103490.47
2023-02-08T15:52:20.693Z,103491.41
2023-02-08T15:54:49.248Z,103483.66
2023-02-08T15:57:31.728Z,103493.88
2023-02-08T16:00:00.215Z,103477.69
2023-02-08T16:02:31.387Z,103479.66
2023-02-08T16:05:00.004Z,103473.63
2023-02-08T16:07:30.151Z,103479.00
2023-02-08T16:09:58.683Z,103473.13
2023-02-08T16:12:28.226Z,103478.47
2023-02-08T16:14:57.261Z,103469.78
2023-02-08T16:17:38.466Z,103468.03
2023-02-08T16:20:25.596Z,103465.09
2023-02-08T16:22:57.236Z,103467.31
2023-02-08T16:25:44.054Z,103474.97
2023-02-08T16:28:29.364Z,103462.44
2023-02-08T16:30:58.549Z,103460.47
2023-02-08T16:33:28.726Z,103455.06
2023-02-08T16:36:01.883Z,103453.53
2023-02-08T16:38:31.587Z,103447.25
2023-02-08T16:41:12.063Z,103450.09
2023-02-08T16:43:43.918Z,103442.72
2023-02-08T16:46:24.683Z,103441.75
2023-02-08T16:48:55.638Z,103433.25
2023-02-08T16:51:26.318Z,103430.47
2023-02-08T16:53:57.461Z,103427.84
2023-02-08T16:56:25.649Z,103429.72
2023-02-08T16:58:53.574Z,103433.44
2023-02-08T17:01:23.360Z,103435.38
2023-02-08T17:03:52.992Z,103427.69
2023-02-08T17:06:30.357Z,103421.78
2023-02-08T17:08:58.447Z,103410.88
2023-02-08T17:11:26.343Z,103417.34
2023-02-08T17:13:54.287Z,103411.94
2023-02-08T17:16:23.647Z,103409.09
2023-02-08T17:18:51.788Z,103410.81
2023-02-08T17:21:20.293Z,103403.56
2023-02-08T17:23:50.125Z,103403.75
2023-02-08T17:26:20.023Z,103411.34
2023-02-08T17:28:47.974Z,103421.81
2023-02-08T17:31:15.997Z,103420.50
2023-02-08T17:33:44.127Z,103415.06
2023-02-08T17:36:13.943Z,103413.22
2023-02-08T17:38:42.901Z,103405.84
2023-02-08T17:41:14.856Z,103404.94
2023-02-08T17:43:42.888Z,103393.38
2023-02-08T17:46:11.675Z,103388.91
2023-02-08T17:48:39.858Z,103388.88
2023-02-08T17:51:11.197Z,103387.91
2023-02-08T17:53:40.895Z,103381.69
2023-02-08T17:56:09.711Z,103394.13
2023-02-08T17:58:39.009Z,103380.78
2023-02-08T18:01:08.157Z,103379.97
2023-02-08T18:03:36.424Z,103374.72
2023-02-08T18:06:06.115Z,103374.72
2023-02-08T18:08:35.081Z,103374.72
2023-02-08T18:11:05.116Z,103374.75
2023-02-08T18:13:33.241Z,103368.56
2023-02-08T18:16:08.023Z,103360.56
2023-02-08T18:18:35.974Z,103365.13
2023-02-08T18:21:09.243Z,103366.91
2023-02-08T18:23:37.202Z,103369.53
2023-02-08T18:26:06.750Z,103366.03
2023-02-08T18:28:34.868Z,103355.38
2023-02-08T18:31:05.791Z,103356.34
2023-02-08T18:33:34.375Z,103358.22
2023-02-08T18:36:02.727Z,103358.16
2023-02-08T18:38:30.893Z,103359.91
2023-02-08T18:40:59.084Z,103349.38
2023-02-08T18:43:27.726Z,103348.50
2023-02-08T18:46:04.788Z,103354.75
2023-02-08T18:48:35.242Z,103348.53
2023-02-08T18:51:03.929Z,103345.00
2023-02-08T18:53:33.420Z,103334.41
2023-02-08T18:56:02.586Z,103334.41
2023-02-08T18:58:30.571Z,103341.59
2023-02-08T19:01:07.475Z,103338.00
2023-02-08T19:03:36.154Z,103328.22
2023-02-08T19:06:06.345Z,103333.59
2023-02-08T19:09:06.134Z,103329.16
2023-02-08T19:11:37.677Z,103326.50
2023-02-08T19:14:08.145Z,103331.00
2023-02-08T19:16:38.467Z,103327.47
2023-02-08T19:19:07.578Z,103320.38
2023-02-08T19:21:36.041Z,103322.19
2023-02-08T19:24:04.010Z,103325.75
2023-02-08T19:26:33.811Z,103318.69
2023-02-08T19:29:03.570Z,103324.97
2023-02-08T19:31:32.028Z,103318.75
2023-02-08T19:34:03.307Z,103322.28
2023-02-08T19:36:32.900Z,103324.03
2023-02-08T19:39:02.061Z,103323.19
2023-02-08T19:41:34.371Z,103324.91
2023-02-08T19:44:06.715Z,103325.91
2023-02-08T19:46:38.764Z,103316.13
2023-02-08T19:49:08.382Z,103313.44
2023-02-08T19:51:37.176Z,103315.25
2023-02-08T19:54:08.538Z,103314.44
2023-02-08T19:56:36.516Z,103316.22
2023-02-08T19:59:05.576Z,103310.84
2023-02-08T20:01:35.521Z,103317.06
2023-02-08T20:04:03.955Z,103314.50
2023-02-08T20:06:35.246Z,103303.84
2023-02-08T20:09:04.028Z,103317.09
2023-02-08T20:11:33.899Z,103315.38
2023-02-08T20:14:02.588Z,103311.84
2023-02-08T20:16:31.866Z,103307.41
2023-02-08T20:19:00.665Z,103311.81
2023-02-08T20:21:28.899Z,103312.72
2023-02-08T20:23:58.493Z,103309.19
2023-02-08T20:26:27.869Z,103305.66
2023-02-08T20:28:58.788Z,103311.88
2023-02-08T20:31:29.223Z,103299.47
2023-02-08T20:33:59.779Z,103295.03
2023-02-08T20:36:29.943Z,103296.84
2023-02-08T20:39:00.109Z,103298.59
2023-02-08T20:41:31.156Z,103299.47
2023-02-08T20:43:59.088Z,103291.50
2023-02-08T20:46:30.840Z,103303.06
2023-02-08T20:49:00.098Z,103310.19
2023-02-08T20:51:28.803Z,103314.59
2023-02-08T20:53:59.587Z,103317.28
2023-02-08T20:56:29.260Z,103304.00
2023-02-08T20:58:57.245Z,103312.84
2023-02-08T21:01:26.810Z,103299.53
2023-02-08T21:03:54.934Z,103310.19
2023-02-08T21:06:26.458Z,103296.00
2023-02-08T21:08:55.704Z,103304.91
2023-02-08T21:11:27.015Z,103307.53
2023-02-08T21:13:55.080Z,103311.97
2023-02-08T21:16:23.157Z,103301.34
2023-02-08T21:18:51.507Z,103300.47
2023-02-08T21:21:19.788Z,103290.69
2023-02-08T21:23:48.135Z,103284.47
2023-02-08T21:26:18.020Z,103285.38
2023-02-08T21:28:47.640Z,103293.34
2023-02-08T21:31:17.381Z,103286.28
2023-02-08T21:33:45.698Z,103286.25
2023-02-08T21:36:15.527Z,103287.16
2023-02-08T21:38:43.716Z,103280.06
2023-02-08T21:41:13.731Z,103274.75
2023-02-08T21:43:41.690Z,103274.75
2023-02-08T21:46:11.226Z,103277.41
2023-02-08T21:48:53.101Z,103279.16
2023-02-08T21:51:39.163Z,103277.41
2023-02-08T21:54:30.422Z,103265.00
2023-02-08T21:56:59.778Z,103249.94
2023-02-08T21:59:27.886Z,103249.94
2023-02-08T22:01:57.333Z,103242.81
2023-02-08T22:04:25.492Z,103237.50
2023-02-08T22:06:52.726Z,103233.94
2023-02-08T22:09:21.861Z,103238.38
2023-02-08T22:11:50.300Z,103228.63
2023-02-08T22:14:18.268Z,103229.50
2023-02-08T22:16:46.175Z,103228.66
2023-02-08T22:19:15.619Z,103230.41
2023-02-08T22:21:43.542Z,103223.31
2023-02-08T22:24:11.464Z,103218.00
2023-02-08T22:26:39.502Z,103218.03
2023-02-08T22:29:07.423Z,103216.25
2023-02-08T22:31:36.751Z,103214.44
2023-02-08T22:34:05.071Z,103213.59
2023-02-08T22:36:34.617Z,103214.44
2023-02-08T22:39:02.565Z,103206.47
2023-02-08T22:41:30.464Z,103201.16
2023-02-08T22:43:58.441Z,103205.59
2023-02-08T22:46:26.477Z,103201.19
2023-02-08T22:48:54.405Z,103208.28
2023-02-08T22:51:23.631Z,103202.06
2023-02-08T22:53:52.946Z,103197.63
2023-02-08T22:56:20.909Z,103189.66
2023-02-08T22:58:48.816Z,103190.53
2023-02-08T23:01:17.958Z,103182.53
2023-02-08T23:03:45.980Z,103183.44
2023-02-08T23:06:16.989Z,103189.66
2023-02-08T23:08:45.029Z,103179.91
2023-02-08T23:11:15.395Z,103182.56
2023-02-08T23:13:43.316Z,103171.03
2023-02-08T23:16:13.265Z,103170.16
2023-02-08T23:18:41.576Z,103172.81
2023-02-08T23:21:11.565Z,103174.59
2023-02-08T23:23:39.951Z,103171.03
2023-02-08T23:26:08.651Z,103163.06
2023-02-08T23:28:38.441Z,103164.84
2023-02-08T23:31:06.992Z,103160.41
2023-02-08T23:33:35.486Z,103156.88
2023-02-08T23:36:06.479Z,103151.56
2023-02-08T23:38:34.433Z,103150.66
2023-02-08T23:41:04.184Z,103139.13
2023-02-08T23:43:32.102Z,103136.47
2023-02-08T23:46:06.918Z,103127.63
2023-02-08T23:48:34.865Z,103134.72
2023-02-08T23:51:04.095Z,103138.25
2023-02-08T23:53:32.559Z,103129.38
2023-02-08T23:56:06.378Z,103127.63
2023-02-08T23:58:34.344Z,103124.94
